sensor_id;sensor_type;location;lat;lon;timestamp;P1;durP1;ratioP1;P2;durP2;ratioP2
26696;SDS011;14312;52.614;13.496;2023-05-07T00:00:38;4.93;;;4.53;;
26696;SDS011;14312;52.614;13.496;2023-05-07T00:03:25;4.53;;;4.15;;
26696;SDS011;14312;52.614;13.496;2023-05-07T00:06:11;4.50;;;4.10;;
26696;SDS011;14312;52.614;13.496;2023-05-07T00:08:58;4.20;;;3.80;;
26696;SDS011;14312;52.614;13.496;2023-05-07T00:11:44;4.78;;;4.38;;
26696;SDS011;14312;52.614;13.496;2023-05-07T00:14:30;4.68;;;4.28;;
26696;SDS011;14312;52.614;13.496;2023-05-07T00:17:16;4.50;;;4.03;;
26696;SDS011;14312;52.614;13.496;2023-05-07T00:20:03;4.35;;;3.70;;
26696;SDS011;14312;52.614;13.496;2023-05-07T00:22:50;4.53;;;4.13;;
26696;SDS011;14312;52.614;13.496;2023-05-07T00:25:36;4.47;;;4.07;;
26696;SDS011;14312;52.614;13.496;2023-05-07T00:28:22;4.47;;;4.07;;
26696;SDS011;14312;52.614;13.496;2023-05-07T00:31:08;4.25;;;3.85;;
26696;SDS011;14312;52.614;13.496;2023-05-07T00:33:54;4.10;;;3.70;;
26696;SDS011;14312;52.614;13.496;2023-05-07T00:36:40;4.30;;;3.90;;
26696;SDS011;14312;52.614;13.496;2023-05-07T00:39:26;4.85;;;3.95;;
26696;SDS011;14312;52.614;13.496;2023-05-07T00:42:12;4.40;;;4.00;;
26696;SDS011;14312;52.614;13.496;2023-05-07T00:44:58;3.80;;;3.50;;
26696;SDS011;14312;52.614;13.496;2023-05-07T00:47:44;4.28;;;3.88;;
26696;SDS011;14312;52.614;13.496;2023-05-07T00:50:31;4.15;;;3.78;;
26696;SDS011;14312;52.614;13.496;2023-05-07T00:53:18;4.63;;;3.80;;
26696;SDS011;14312;52.614;13.496;2023-05-07T00:56:04;4.03;;;3.70;;
26696;SDS011;14312;52.614;13.496;2023-05-07T00:58:51;4.20;;;3.80;;
26696;SDS011;14312;52.614;13.496;2023-05-07T01:01:38;3.92;;;3.63;;
26696;SDS011;14312;52.614;13.496;2023-05-07T01:04:24;4.55;;;3.97;;
26696;SDS011;14312;52.614;13.496;2023-05-07T01:07:10;4.32;;;3.95;;
26696;SDS011;14312;52.614;13.496;2023-05-07T01:09:56;4.88;;;4.07;;
26696;SDS011;14312;52.614;13.496;2023-05-07T01:12:43;4.68;;;4.28;;
26696;SDS011;14312;52.614;13.496;2023-05-07T01:15:31;4.07;;;3.45;;
26696;SDS011;14312;52.614;13.496;2023-05-07T01:18:17;4.88;;;4.32;;
26696;SDS011;14312;52.614;13.496;2023-05-07T01:21:04;4.20;;;3.90;;
26696;SDS011;14312;52.614;13.496;2023-05-07T01:23:50;4.07;;;3.78;;
26696;SDS011;14312;52.614;13.496;2023-05-07T01:26:36;4.47;;;4.07;;
26696;SDS011;14312;52.614;13.496;2023-05-07T01:29:23;4.55;;;4.15;;
26696;SDS011;14312;52.614;13.496;2023-05-07T01:32:09;5.13;;;4.40;;
26696;SDS011;14312;52.614;13.496;2023-05-07T01:34:56;4.18;;;3.80;;
26696;SDS011;14312;52.614;13.496;2023-05-07T01:37:44;4.88;;;4.22;;
26696;SDS011;14312;52.614;13.496;2023-05-07T01:40:31;4.70;;;4.30;;
26696;SDS011;14312;52.614;13.496;2023-05-07T01:43:17;4.70;;;4.30;;
26696;SDS011;14312;52.614;13.496;2023-05-07T01:46:03;4.55;;;4.15;;
26696;SDS011;14312;52.614;13.496;2023-05-07T01:48:49;4.20;;;3.90;;
26696;SDS011;14312;52.614;13.496;2023-05-07T01:51:36;4.15;;;3.80;;
26696;SDS011;14312;52.614;13.496;2023-05-07T01:54:28;5.57;;;4.57;;
26696;SDS011;14312;52.614;13.496;2023-05-07T01:57:14;4.25;;;3.85;;
26696;SDS011;14312;52.614;13.496;2023-05-07T02:00:00;3.83;;;3.42;;
26696;SDS011;14312;52.614;13.496;2023-05-07T02:02:48;4.03;;;3.45;;
26696;SDS011;14312;52.614;13.496;2023-05-07T02:05:34;4.45;;;4.05;;
26696;SDS011;14312;52.614;13.496;2023-05-07T02:08:20;5.13;;;4.40;;
26696;SDS011;14312;52.614;13.496;2023-05-07T02:11:06;4.40;;;4.00;;
26696;SDS011;14312;52.614;13.496;2023-05-07T02:13:52;4.47;;;4.07;;
26696;SDS011;14312;52.614;13.496;2023-05-07T02:16:38;3.92;;;3.63;;
26696;SDS011;14312;52.614;13.496;2023-05-07T02:19:24;4.28;;;3.88;;
26696;SDS011;14312;52.614;13.496;2023-05-07T02:22:10;4.53;;;4.13;;
26696;SDS011;14312;52.614;13.496;2023-05-07T02:24:56;4.43;;;4.03;;
26696;SDS011;14312;52.614;13.496;2023-05-07T02:27:42;4.07;;;3.67;;
26696;SDS011;14312;52.614;13.496;2023-05-07T02:30:28;3.78;;;3.47;;
26696;SDS011;14312;52.614;13.496;2023-05-07T02:33:14;5.28;;;3.90;;
26696;SDS011;14312;52.614;13.496;2023-05-07T02:36:09;4.75;;;4.35;;
26696;SDS011;14312;52.614;13.496;2023-05-07T02:38:56;3.80;;;3.50;;
26696;SDS011;14312;52.614;13.496;2023-05-07T02:41:42;4.22;;;3.92;;
26696;SDS011;14312;52.614;13.496;2023-05-07T02:44:28;4.30;;;3.90;;
26696;SDS011;14312;52.614;13.496;2023-05-07T02:47:16;4.45;;;4.03;;
26696;SDS011;14312;52.614;13.496;2023-05-07T02:50:02;4.45;;;3.80;;
26696;SDS011;14312;52.614;13.496;2023-05-07T02:52:49;3.80;;;3.50;;
26696;SDS011;14312;52.614;13.496;2023-05-07T02:55:35;3.53;;;2.92;;
26696;SDS011;14312;52.614;13.496;2023-05-07T02:58:21;3.80;;;3.50;;
26696;SDS011;14312;52.614;13.496;2023-05-07T03:01:07;3.63;;;3.33;;
26696;SDS011;14312;52.614;13.496;2023-05-07T03:03:54;3.75;;;3.45;;
26696;SDS011;14312;52.614;13.496;2023-05-07T03:06:40;4.38;;;3.63;;
26696;SDS011;14312;52.614;13.496;2023-05-07T03:09:25;3.45;;;3.15;;
26696;SDS011;14312;52.614;13.496;2023-05-07T03:12:11;3.80;;;3.50;;
26696;SDS011;14312;52.614;13.496;2023-05-07T03:14:57;3.90;;;3.60;;
26696;SDS011;14312;52.614;13.496;2023-05-07T03:17:43;3.90;;;3.60;;
26696;SDS011;14312;52.614;13.496;2023-05-07T03:20:29;4.00;;;3.60;;
26696;SDS011;14312;52.614;13.496;2023-05-07T03:23:15;3.80;;;3.50;;
26696;SDS011;14312;52.614;13.496;2023-05-07T03:26:01;3.55;;;3.25;;
26696;SDS011;14312;52.614;13.496;2023-05-07T03:28:47;3.38;;;3.08;;
26696;SDS011;14312;52.614;13.496;2023-05-07T03:31:33;3.78;;;3.30;;
26696;SDS011;14312;52.614;13.496;2023-05-07T03:34:19;3.50;;;3.20;;
26696;SDS011;14312;52.614;13.496;2023-05-07T03:37:07;3.22;;;2.97;;
26696;SDS011;14312;52.614;13.496;2023-05-07T03:39:53;3.50;;;3.20;;
26696;SDS011;14312;52.614;13.496;2023-05-07T03:42:39;3.45;;;3.15;;
26696;SDS011;14312;52.614;13.496;2023-05-07T03:45:25;3.13;;;2.90;;
26696;SDS011;14312;52.614;13.496;2023-05-07T03:48:11;3.55;;;3.25;;
26696;SDS011;14312;52.614;13.496;2023-05-07T03:50:57;3.03;;;2.83;;
26696;SDS011;14312;52.614;13.496;2023-05-07T03:53:43;3.60;;;3.30;;
26696;SDS011;14312;52.614;13.496;2023-05-07T03:56:29;3.40;;;3.10;;
26696;SDS011;14312;52.614;13.496;2023-05-07T03:59:16;3.38;;;3.08;;
26696;SDS011;14312;52.614;13.496;2023-05-07T04:02:02;3.53;;;3.22;;
26696;SDS011;14312;52.614;13.496;2023-05-07T04:04:48;3.08;;;2.88;;
26696;SDS011;14312;52.614;13.496;2023-05-07T04:07:35;3.55;;;3.15;;
26696;SDS011;14312;52.614;13.496;2023-05-07T04:10:21;3.72;;;3.30;;
26696;SDS011;14312;52.614;13.496;2023-05-07T04:13:07;3.92;;;3.30;;
26696;SDS011;14312;52.614;13.496;2023-05-07T04:15:54;4.05;;;3.70;;
26696;SDS011;14312;52.614;13.496;2023-05-07T04:18:40;3.97;;;3.65;;
26696;SDS011;14312;52.614;13.496;2023-05-07T04:21:27;4.72;;;3.53;;
26696;SDS011;14312;52.614;13.496;2023-05-07T04:24:13;4.05;;;3.60;;
26696;SDS011;14312;52.614;13.496;2023-05-07T04:26:59;3.67;;;3.38;;
26696;SDS011;14312;52.614;13.496;2023-05-07T04:29:45;3.83;;;3.50;;
26696;SDS011;14312;52.614;13.496;2023-05-07T04:32:32;3.80;;;3.50;;
26696;SDS011;14312;52.614;13.496;2023-05-07T04:35:18;4.22;;;3.88;;
26696;SDS011;14312;52.614;13.496;2023-05-07T04:38:05;3.92;;;3.60;;
26696;SDS011;14312;52.614;13.496;2023-05-07T04:40:51;3.80;;;3.50;;
26696;SDS011;14312;52.614;13.496;2023-05-07T04:43:36;4.00;;;3.20;;
26696;SDS011;14312;52.614;13.496;2023-05-07T04:46:22;4.38;;;3.97;;
26696;SDS011;14312;52.614;13.496;2023-05-07T04:49:09;4.20;;;3.42;;
26696;SDS011;14312;52.614;13.496;2023-05-07T04:51:56;3.88;;;3.30;;
26696;SDS011;14312;52.614;13.496;2023-05-07T04:54:42;3.97;;;3.58;;
26696;SDS011;14312;52.614;13.496;2023-05-07T04:57:28;3.55;;;3.25;;
26696;SDS011;14312;52.614;13.496;2023-05-07T05:00:14;4.18;;;3.75;;
26696;SDS011;14312;52.614;13.496;2023-05-07T05:03:00;3.70;;;3.40;;
26696;SDS011;14312;52.614;13.496;2023-05-07T05:05:46;3.97;;;3.58;;
26696;SDS011;14312;52.614;13.496;2023-05-07T05:08:34;4.22;;;3.92;;
26696;SDS011;14312;52.614;13.496;2023-05-07T05:11:20;3.88;;;3.25;;
26696;SDS011;14312;52.614;13.496;2023-05-07T05:14:06;3.70;;;3.40;;
26696;SDS011;14312;52.614;13.496;2023-05-07T05:16:52;3.00;;;2.80;;
26696;SDS011;14312;52.614;13.496;2023-05-07T05:19:38;4.00;;;3.70;;
26696;SDS011;14312;52.614;13.496;2023-05-07T05:22:24;3.55;;;3.25;;
26696;SDS011;14312;52.614;13.496;2023-05-07T05:25:11;4.00;;;3.60;;
26696;SDS011;14312;52.614;13.496;2023-05-07T05:27:57;3.33;;;3.13;;
26696;SDS011;14312;52.614;13.496;2023-05-07T05:30:43;5.45;;;3.90;;
26696;SDS011;14312;52.614;13.496;2023-05-07T05:33:29;3.90;;;3.60;;
26696;SDS011;14312;52.614;13.496;2023-05-07T05:36:15;3.80;;;3.50;;
26696;SDS011;14312;52.614;13.496;2023-05-07T05:39:01;4.85;;;3.90;;
26696;SDS011;14312;52.614;13.496;2023-05-07T05:41:47;4.15;;;3.55;;
26696;SDS011;14312;52.614;13.496;2023-05-07T05:44:33;4.05;;;3.50;;
26696;SDS011;14312;52.614;13.496;2023-05-07T05:47:19;3.90;;;3.50;;
26696;SDS011;14312;52.614;13.496;2023-05-07T05:50:05;3.97;;;3.67;;
26696;SDS011;14312;52.614;13.496;2023-05-07T05:52:52;3.58;;;3.28;;
26696;SDS011;14312;52.614;13.496;2023-05-07T05:55:38;3.47;;;3.17;;
26696;SDS011;14312;52.614;13.496;2023-05-07T05:58:24;4.20;;;3.90;;
26696;SDS011;14312;52.614;13.496;2023-05-07T06:01:10;3.97;;;3.67;;
26696;SDS011;14312;52.614;13.496;2023-05-07T06:03:57;3.80;;;3.45;;
26696;SDS011;14312;52.614;13.496;2023-05-07T06:06:43;3.70;;;3.40;;
26696;SDS011;14312;52.614;13.496;2023-05-07T06:09:29;3.75;;;3.45;;
26696;SDS011;14312;52.614;13.496;2023-05-07T06:12:15;3.47;;;3.17;;
26696;SDS011;14312;52.614;13.496;2023-05-07T06:15:01;3.72;;;3.42;;
26696;SDS011;14312;52.614;13.496;2023-05-07T06:17:47;3.83;;;3.53;;
26696;SDS011;14312;52.614;13.496;2023-05-07T06:20:33;3.90;;;3.60;;
26696;SDS011;14312;52.614;13.496;2023-05-07T06:23:19;4.30;;;3.90;;
26696;SDS011;14312;52.614;13.496;2023-05-07T06:26:05;3.67;;;3.38;;
26696;SDS011;14312;52.614;13.496;2023-05-07T06:28:51;4.85;;;3.88;;
26696;SDS011;14312;52.614;13.496;2023-05-07T06:31:37;3.50;;;3.20;;
26696;SDS011;14312;52.614;13.496;2023-05-07T06:34:23;6.63;;;3.90;;
26696;SDS011;14312;52.614;13.496;2023-05-07T06:37:09;4.72;;;3.65;;
26696;SDS011;14312;52.614;13.496;2023-05-07T06:39:54;3.55;;;3.25;;
26696;SDS011;14312;52.614;13.496;2023-05-07T06:42:40;3.50;;;3.20;;
26696;SDS011;14312;52.614;13.496;2023-05-07T06:45:26;3.30;;;3.00;;
26696;SDS011;14312;52.614;13.496;2023-05-07T06:48:12;4.22;;;3.20;;
26696;SDS011;14312;52.614;13.496;2023-05-07T06:50:58;3.13;;;2.83;;
26696;SDS011;14312;52.614;13.496;2023-05-07T06:53:44;3.60;;;3.30;;
26696;SDS011;14312;52.614;13.496;2023-05-07T06:56:30;2.97;;;2.78;;
26696;SDS011;14312;52.614;13.496;2023-05-07T06:59:16;3.25;;;2.95;;
26696;SDS011;14312;52.614;13.496;2023-05-07T07:02:02;4.07;;;3.47;;
26696;SDS011;14312;52.614;13.496;2023-05-07T07:04:48;3.47;;;3.17;;
26696;SDS011;14312;52.614;13.496;2023-05-07T07:07:34;3.63;;;3.33;;
26696;SDS011;14312;52.614;13.496;2023-05-07T07:10:20;3.10;;;2.90;;
26696;SDS011;14312;52.614;13.496;2023-05-07T07:13:07;3.53;;;3.00;;
26696;SDS011;14312;52.614;13.496;2023-05-07T07:15:53;3.10;;;2.80;;
26696;SDS011;14312;52.614;13.496;2023-05-07T07:18:39;2.80;;;2.60;;
26696;SDS011;14312;52.614;13.496;2023-05-07T07:21:25;2.47;;;2.30;;
26696;SDS011;14312;52.614;13.496;2023-05-07T07:24:12;3.20;;;2.90;;
26696;SDS011;14312;52.614;13.496;2023-05-07T07:26:59;3.17;;;2.90;;
26696;SDS011;14312;52.614;13.496;2023-05-07T07:29:44;3.25;;;2.95;;
26696;SDS011;14312;52.614;13.496;2023-05-07T07:32:30;2.63;;;2.42;;
26696;SDS011;14312;52.614;13.496;2023-05-07T07:35:18;3.13;;;2.80;;
26696;SDS011;14312;52.614;13.496;2023-05-07T07:38:04;2.90;;;2.67;;
26696;SDS011;14312;52.614;13.496;2023-05-07T07:40:50;3.00;;;2.70;;
26696;SDS011;14312;52.614;13.496;2023-05-07T07:43:36;2.20;;;2.10;;
26696;SDS011;14312;52.614;13.496;2023-05-07T07:46:22;2.50;;;2.30;;
26696;SDS011;14312;52.614;13.496;2023-05-07T07:49:08;3.58;;;2.78;;
26696;SDS011;14312;52.614;13.496;2023-05-07T07:51:54;2.45;;;2.25;;
26696;SDS011;14312;52.614;13.496;2023-05-07T07:54:40;2.50;;;2.30;;
26696;SDS011;14312;52.614;13.496;2023-05-07T07:57:26;2.53;;;2.33;;
26696;SDS011;14312;52.614;13.496;2023-05-07T08:00:12;2.38;;;2.17;;
26696;SDS011;14312;52.614;13.496;2023-05-07T08:02:58;3.33;;;2.40;;
26696;SDS011;14312;52.614;13.496;2023-05-07T08:05:44;2.70;;;2.50;;
26696;SDS011;14312;52.614;13.496;2023-05-07T08:08:30;2.55;;;2.35;;
26696;SDS011;14312;52.614;13.496;2023-05-07T08:11:16;2.47;;;2.25;;
26696;SDS011;14312;52.614;13.496;2023-05-07T08:14:02;2.47;;;2.28;;
26696;SDS011;14312;52.614;13.496;2023-05-07T08:16:48;2.13;;;1.95;;
26696;SDS011;14312;52.614;13.496;2023-05-07T08:19:35;3.17;;;2.17;;
26696;SDS011;14312;52.614;13.496;2023-05-07T08:22:21;2.28;;;2.08;;
26696;SDS011;14312;52.614;13.496;2023-05-07T08:25:08;2.30;;;2.10;;
26696;SDS011;14312;52.614;13.496;2023-05-07T08:27:54;2.28;;;2.08;;
26696;SDS011;14312;52.614;13.496;2023-05-07T08:30:40;2.28;;;2.08;;
26696;SDS011;14312;52.614;13.496;2023-05-07T08:33:26;3.22;;;2.58;;
26696;SDS011;14312;52.614;13.496;2023-05-07T08:36:13;2.45;;;2.08;;
26696;SDS011;14312;52.614;13.496;2023-05-07T08:38:59;3.05;;;2.38;;
26696;SDS011;14312;52.614;13.496;2023-05-07T08:41:46;2.38;;;2.00;;
26696;SDS011;14312;52.614;13.496;2023-05-07T08:44:34;2.15;;;2.03;;
26696;SDS011;14312;52.614;13.496;2023-05-07T08:47:21;3.13;;;2.25;;
26696;SDS011;14312;52.614;13.496;2023-05-07T08:50:09;2.65;;;2.45;;
26696;SDS011;14312;52.614;13.496;2023-05-07T08:52:56;2.30;;;2.10;;
26696;SDS011;14312;52.614;13.496;2023-05-07T08:55:42;2.05;;;1.92;;
26696;SDS011;14312;52.614;13.496;2023-05-07T08:58:28;2.58;;;1.90;;
26696;SDS011;14312;52.614;13.496;2023-05-07T09:01:15;2.00;;;1.90;;
26696;SDS011;14312;52.614;13.496;2023-05-07T09:04:02;1.75;;;1.65;;
26696;SDS011;14312;52.614;13.496;2023-05-07T09:06:48;3.75;;;1.98;;
26696;SDS011;14312;52.614;13.496;2023-05-07T09:09:36;2.30;;;2.10;;
26696;SDS011;14312;52.614;13.496;2023-05-07T09:12:23;1.98;;;1.88;;
26696;SDS011;14312;52.614;13.496;2023-05-07T09:15:09;2.05;;;1.85;;
26696;SDS011;14312;52.614;13.496;2023-05-07T09:17:59;2.08;;;1.88;;
26696;SDS011;14312;52.614;13.496;2023-05-07T09:20:46;2.38;;;1.88;;
26696;SDS011;14312;52.614;13.496;2023-05-07T09:23:32;2.10;;;1.90;;
26696;SDS011;14312;52.614;13.496;2023-05-07T09:26:20;1.70;;;1.60;;
26696;SDS011;14312;52.614;13.496;2023-05-07T09:29:07;1.98;;;1.60;;
26696;SDS011;14312;52.614;13.496;2023-05-07T09:31:55;2.00;;;1.90;;
26696;SDS011;14312;52.614;13.496;2023-05-07T09:34:41;1.73;;;1.63;;
26696;SDS011;14312;52.614;13.496;2023-05-07T09:37:28;1.73;;;1.63;;
26696;SDS011;14312;52.614;13.496;2023-05-07T09:40:23;2.67;;;1.80;;
26696;SDS011;14312;52.614;13.496;2023-05-07T09:43:11;1.92;;;1.50;;
26696;SDS011;14312;52.614;13.496;2023-05-07T09:45:59;1.73;;;1.63;;
26696;SDS011;14312;52.614;13.496;2023-05-07T09:48:48;1.55;;;1.45;;
26696;SDS011;14312;52.614;13.496;2023-05-07T09:51:39;1.58;;;1.30;;
26696;SDS011;14312;52.614;13.496;2023-05-07T09:54:29;1.60;;;1.50;;
26696;SDS011;14312;52.614;13.496;2023-05-07T09:57:16;2.03;;;1.60;;
26696;SDS011;14312;52.614;13.496;2023-05-07T10:00:04;1.70;;;1.60;;
26696;SDS011;14312;52.614;13.496;2023-05-07T10:02:54;1.92;;;1.73;;
26696;SDS011;14312;52.614;13.496;2023-05-07T10:05:42;1.65;;;1.50;;
26696;SDS011;14312;52.614;13.496;2023-05-07T10:08:30;2.15;;;1.60;;
26696;SDS011;14312;52.614;13.496;2023-05-07T10:11:16;1.50;;;1.40;;
26696;SDS011;14312;52.614;13.496;2023-05-07T10:14:03;1.65;;;1.55;;
26696;SDS011;14312;52.614;13.496;2023-05-07T10:16:51;1.58;;;1.48;;
26696;SDS011;14312;52.614;13.496;2023-05-07T10:19:39;1.70;;;1.60;;
26696;SDS011;14312;52.614;13.496;2023-05-07T10:22:25;1.60;;;1.50;;
26696;SDS011;14312;52.614;13.496;2023-05-07T10:25:31;1.50;;;1.40;;
26696;SDS011;14312;52.614;13.496;2023-05-07T10:28:18;1.45;;;1.30;;
26696;SDS011;14312;52.614;13.496;2023-05-07T10:34:25;1.67;;;1.58;;
26696;SDS011;14312;52.614;13.496;2023-05-07T10:37:14;1.70;;;1.60;;
26696;SDS011;14312;52.614;13.496;2023-05-07T10:40:01;1.60;;;1.50;;
26696;SDS011;14312;52.614;13.496;2023-05-07T10:42:57;2.03;;;1.65;;
26696;SDS011;14312;52.614;13.496;2023-05-07T10:52:06;1.10;;;1.08;;
26696;SDS011;14312;52.614;13.496;2023-05-07T11:01:13;1.60;;;1.38;;
26696;SDS011;14312;52.614;13.496;2023-05-07T11:04:33;1.77;;;1.38;;
26696;SDS011;14312;52.614;13.496;2023-05-07T11:07:31;1.20;;;1.10;;
26696;SDS011;14312;52.614;13.496;2023-05-07T11:10:17;1.40;;;1.30;;
26696;SDS011;14312;52.614;13.496;2023-05-07T11:13:03;1.88;;;1.30;;
26696;SDS011;14312;52.614;13.496;2023-05-07T11:15:49;1.55;;;1.30;;
26696;SDS011;14312;52.614;13.496;2023-05-07T11:18:46;1.40;;;1.30;;
26696;SDS011;14312;52.614;13.496;2023-05-07T11:21:36;1.50;;;1.40;;
26696;SDS011;14312;52.614;13.496;2023-05-07T11:24:24;1.13;;;1.13;;
26696;SDS011;14312;52.614;13.496;2023-05-07T11:27:10;2.00;;;1.30;;
26696;SDS011;14312;52.614;13.496;2023-05-07T11:29:57;1.65;;;1.55;;
26696;SDS011;14312;52.614;13.496;2023-05-07T11:32:44;1.58;;;1.48;;
26696;SDS011;14312;52.614;13.496;2023-05-07T11:35:33;2.30;;;1.42;;
26696;SDS011;14312;52.614;13.496;2023-05-07T11:38:19;3.20;;;1.45;;
26696;SDS011;14312;52.614;13.496;2023-05-07T11:41:05;1.30;;;1.20;;
26696;SDS011;14312;52.614;13.496;2023-05-07T11:43:59;1.50;;;1.40;;
26696;SDS011;14312;52.614;13.496;2023-05-07T11:46:45;1.40;;;1.30;;
26696;SDS011;14312;52.614;13.496;2023-05-07T11:49:32;2.13;;;1.48;;
26696;SDS011;14312;52.614;13.496;2023-05-07T11:52:20;2.67;;;1.38;;
26696;SDS011;14312;52.614;13.496;2023-05-07T11:55:07;1.58;;;1.20;;
26696;SDS011;14312;52.614;13.496;2023-05-07T11:57:53;1.15;;;1.08;;
26696;SDS011;14312;52.614;13.496;2023-05-07T12:00:40;1.30;;;1.20;;
26696;SDS011;14312;52.614;13.496;2023-05-07T12:03:34;1.83;;;1.10;;
26696;SDS011;14312;52.614;13.496;2023-05-07T12:06:20;1.20;;;1.10;;
26696;SDS011;14312;52.614;13.496;2023-05-07T12:09:06;1.85;;;1.38;;
26696;SDS011;14312;52.614;13.496;2023-05-07T12:11:56;1.50;;;1.40;;
26696;SDS011;14312;52.614;13.496;2023-05-07T12:14:43;1.25;;;1.17;;
26696;SDS011;14312;52.614;13.496;2023-05-07T12:17:31;1.88;;;1.08;;
26696;SDS011;14312;52.614;13.496;2023-05-07T12:20:17;1.27;;;1.17;;
26696;SDS011;14312;52.614;13.496;2023-05-07T12:23:03;1.48;;;1.38;;
26696;SDS011;14312;52.614;13.496;2023-05-07T12:25:49;1.42;;;1.33;;
26696;SDS011;14312;52.614;13.496;2023-05-07T12:28:36;2.65;;;1.40;;
26696;SDS011;14312;52.614;13.496;2023-05-07T12:31:25;1.50;;;1.40;;
26696;SDS011;14312;52.614;13.496;2023-05-07T12:34:11;1.27;;;1.20;;
26696;SDS011;14312;52.614;13.496;2023-05-07T12:36:57;2.92;;;1.42;;
26696;SDS011;14312;52.614;13.496;2023-05-07T12:39:48;1.40;;;1.30;;
26696;SDS011;14312;52.614;13.496;2023-05-07T12:42:38;1.20;;;1.10;;
26696;SDS011;14312;52.614;13.496;2023-05-07T12:45:25;1.58;;;1.48;;
26696;SDS011;14312;52.614;13.496;2023-05-07T12:48:12;1.40;;;1.30;;
26696;SDS011;14312;52.614;13.496;2023-05-07T12:51:01;1.75;;;1.65;;
26696;SDS011;14312;52.614;13.496;2023-05-07T12:53:48;1.70;;;1.60;;
26696;SDS011;14312;52.614;13.496;2023-05-07T12:56:36;1.50;;;1.40;;
26696;SDS011;14312;52.614;13.496;2023-05-07T12:59:30;1.52;;;1.27;;
26696;SDS011;14312;52.614;13.496;2023-05-07T13:02:17;1.30;;;1.20;;
26696;SDS011;14312;52.614;13.496;2023-05-07T13:05:03;1.42;;;1.33;;
26696;SDS011;14312;52.614;13.496;2023-05-07T13:07:55;1.30;;;1.20;;
26696;SDS011;14312;52.614;13.496;2023-05-07T13:10:42;1.15;;;1.10;;
26696;SDS011;14312;52.614;13.496;2023-05-07T13:13:27;1.08;;;1.08;;
26696;SDS011;14312;52.614;13.496;2023-05-07T13:16:14;1.67;;;1.30;;
26696;SDS011;14312;52.614;13.496;2023-05-07T13:19:02;1.33;;;1.23;;
26696;SDS011;14312;52.614;13.496;2023-05-07T13:21:48;1.20;;;1.10;;
26696;SDS011;14312;52.614;13.496;2023-05-07T13:24:35;1.40;;;1.30;;
26696;SDS011;14312;52.614;13.496;2023-05-07T13:27:21;1.60;;;1.40;;
26696;SDS011;14312;52.614;13.496;2023-05-07T13:30:07;1.33;;;1.20;;
26696;SDS011;14312;52.614;13.496;2023-05-07T13:32:55;2.45;;;1.40;;
26696;SDS011;14312;52.614;13.496;2023-05-07T13:35:41;2.08;;;1.40;;
26696;SDS011;14312;52.614;13.496;2023-05-07T13:38:27;1.30;;;1.20;;
26696;SDS011;14312;52.614;13.496;2023-05-07T13:41:13;1.30;;;1.20;;
26696;SDS011;14312;52.614;13.496;2023-05-07T13:43:59;1.20;;;1.10;;
26696;SDS011;14312;52.614;13.496;2023-05-07T13:46:45;1.25;;;1.15;;
26696;SDS011;14312;52.614;13.496;2023-05-07T13:49:31;1.35;;;1.25;;
26696;SDS011;14312;52.614;13.496;2023-05-07T13:52:17;1.30;;;1.20;;
26696;SDS011;14312;52.614;13.496;2023-05-07T13:55:03;1.00;;;1.00;;
26696;SDS011;14312;52.614;13.496;2023-05-07T13:57:56;2.30;;;1.40;;
26696;SDS011;14312;52.614;13.496;2023-05-07T14:00:44;1.13;;;1.13;;
26696;SDS011;14312;52.614;13.496;2023-05-07T14:03:31;1.45;;;1.35;;
26696;SDS011;14312;52.614;13.496;2023-05-07T14:06:22;1.42;;;1.30;;
26696;SDS011;14312;52.614;13.496;2023-05-07T14:09:09;1.50;;;1.40;;
26696;SDS011;14312;52.614;13.496;2023-05-07T14:11:58;1.20;;;1.10;;
26696;SDS011;14312;52.614;13.496;2023-05-07T14:14:44;1.30;;;1.20;;
26696;SDS011;14312;52.614;13.496;2023-05-07T14:17:31;1.40;;;1.00;;
26696;SDS011;14312;52.614;13.496;2023-05-07T14:20:17;1.30;;;1.20;;
26696;SDS011;14312;52.614;13.496;2023-05-07T14:23:02;1.20;;;1.10;;
26696;SDS011;14312;52.614;13.496;2023-05-07T14:25:48;1.30;;;1.10;;
26696;SDS011;14312;52.614;13.496;2023-05-07T14:28:34;1.23;;;1.20;;
26696;SDS011;14312;52.614;13.496;2023-05-07T14:31:21;1.95;;;1.20;;
26696;SDS011;14312;52.614;13.496;2023-05-07T14:34:07;0.90;;;0.90;;
26696;SDS011;14312;52.614;13.496;2023-05-07T14:36:52;1.30;;;1.20;;
26696;SDS011;14312;52.614;13.496;2023-05-07T14:39:38;1.65;;;1.55;;
26696;SDS011;14312;52.614;13.496;2023-05-07T14:42:25;1.40;;;1.30;;
26696;SDS011;14312;52.614;13.496;2023-05-07T14:45:11;4.63;;;1.15;;
26696;SDS011;14312;52.614;13.496;2023-05-07T14:47:57;1.30;;;1.10;;
26696;SDS011;14312;52.614;13.496;2023-05-07T14:50:42;1.20;;;1.10;;
26696;SDS011;14312;52.614;13.496;2023-05-07T14:53:28;1.08;;;0.98;;
26696;SDS011;14312;52.614;13.496;2023-05-07T14:56:14;1.02;;;0.93;;
26696;SDS011;14312;52.614;13.496;2023-05-07T14:59:01;1.00;;;0.90;;
26696;SDS011;14312;52.614;13.496;2023-05-07T15:01:48;1.63;;;1.52;;
26696;SDS011;14312;52.614;13.496;2023-05-07T15:04:34;1.20;;;1.10;;
26696;SDS011;14312;52.614;13.496;2023-05-07T15:07:20;1.27;;;1.17;;
26696;SDS011;14312;52.614;13.496;2023-05-07T15:10:06;1.13;;;1.00;;
26696;SDS011;14312;52.614;13.496;2023-05-07T15:12:52;1.10;;;1.00;;
26696;SDS011;14312;52.614;13.496;2023-05-07T15:15:38;1.08;;;0.98;;
26696;SDS011;14312;52.614;13.496;2023-05-07T15:18:25;1.10;;;1.00;;
26696;SDS011;14312;52.614;13.496;2023-05-07T15:21:11;0.88;;;0.88;;
26696;SDS011;14312;52.614;13.496;2023-05-07T15:23:57;0.85;;;0.80;;
26696;SDS011;14312;52.614;13.496;2023-05-07T15:26:43;1.15;;;1.00;;
26696;SDS011;14312;52.614;13.496;2023-05-07T15:29:29;2.88;;;0.82;;
26696;SDS011;14312;52.614;13.496;2023-05-07T15:32:15;0.70;;;0.70;;
26696;SDS011;14312;52.614;13.496;2023-05-07T15:35:01;0.90;;;0.90;;
26696;SDS011;14312;52.614;13.496;2023-05-07T15:37:48;1.33;;;1.23;;
26696;SDS011;14312;52.614;13.496;2023-05-07T15:40:37;1.10;;;1.00;;
26696;SDS011;14312;52.614;13.496;2023-05-07T15:43:27;1.27;;;1.10;;
26696;SDS011;14312;52.614;13.496;2023-05-07T15:46:16;1.20;;;1.10;;
26696;SDS011;14312;52.614;13.496;2023-05-07T15:49:04;2.30;;;1.02;;
26696;SDS011;14312;52.614;13.496;2023-05-07T15:51:50;1.38;;;1.00;;
26696;SDS011;14312;52.614;13.496;2023-05-07T15:54:37;0.90;;;0.90;;
26696;SDS011;14312;52.614;13.496;2023-05-07T15:57:23;0.80;;;0.80;;
26696;SDS011;14312;52.614;13.496;2023-05-07T16:00:10;0.80;;;0.80;;
26696;SDS011;14312;52.614;13.496;2023-05-07T16:02:57;1.95;;;1.10;;
26696;SDS011;14312;52.614;13.496;2023-05-07T16:05:43;1.33;;;1.10;;
26696;SDS011;14312;52.614;13.496;2023-05-07T16:08:28;1.40;;;0.90;;
26696;SDS011;14312;52.614;13.496;2023-05-07T16:11:14;1.30;;;0.98;;
26696;SDS011;14312;52.614;13.496;2023-05-07T16:14:00;0.85;;;0.85;;
26696;SDS011;14312;52.614;13.496;2023-05-07T16:16:46;0.80;;;0.70;;
26696;SDS011;14312;52.614;13.496;2023-05-07T16:19:32;1.05;;;1.00;;
26696;SDS011;14312;52.614;13.496;2023-05-07T16:22:18;1.33;;;1.00;;
26696;SDS011;14312;52.614;13.496;2023-05-07T16:25:05;1.13;;;0.80;;
26696;SDS011;14312;52.614;13.496;2023-05-07T16:27:51;0.80;;;0.80;;
26696;SDS011;14312;52.614;13.496;2023-05-07T16:30:38;0.80;;;0.80;;
26696;SDS011;14312;52.614;13.496;2023-05-07T16:33:24;0.98;;;0.80;;
26696;SDS011;14312;52.614;13.496;2023-05-07T16:36:10;2.20;;;1.40;;
26696;SDS011;14312;52.614;13.496;2023-05-07T16:38:56;1.40;;;1.30;;
26696;SDS011;14312;52.614;13.496;2023-05-07T16:41:42;1.10;;;1.00;;
26696;SDS011;14312;52.614;13.496;2023-05-07T16:44:28;1.73;;;1.10;;